createdAt,value
2022-10-05T00:00:47.973Z,95.37
2022-10-05T00:03:21.953Z,94.75
2022-10-05T00:05:54.248Z,94.99
2022-10-05T00:08:31.419Z,94.90
2022-10-05T00:11:06.894Z,95.48
2022-10-05T00:13:40.291Z,94.72
2022-10-05T00:16:16.652Z,94.70
2022-10-05T00:18:51.032Z,95.32
2022-10-05T00:21:25.334Z,95.48
2022-10-05T00:23:58.121Z,96.00
2022-10-05T00:26:32.900Z,96.25
2022-10-05T00:29:18.223Z,96.22
2022-10-05T00:31:50.602Z,96.26
2022-10-05T00:34:23.138Z,96.07
2022-10-05T00:36:55.383Z,96.58
2022-10-05T00:39:29.273Z,95.45
2022-10-05T00:42:18.175Z,94.95
2022-10-05T00:45:02.598Z,94.60
2022-10-05T00:47:47.046Z,95.56
2022-10-05T00:50:39.018Z,95.08
2022-10-05T00:53:24.698Z,95.23
2022-10-05T00:56:03.074Z,95.92
2022-10-05T00:58:49.118Z,96.54
2022-10-05T01:01:31.748Z,96.63
2022-10-05T01:04:14.997Z,97.29
2022-10-05T01:06:58.723Z,96.75
2022-10-05T01:09:38.680Z,97.86
2022-10-05T01:12:22.875Z,97.83
2022-10-05T01:15:02.625Z,96.86
2022-10-05T01:17:42.313Z,98.08
2022-10-05T01:20:39.182Z,97.40
2022-10-05T01:23:35.943Z,97.57
2022-10-05T01:26:25.747Z,97.81
2022-10-05T01:29:02.035Z,97.40
2022-10-05T01:31:41.356Z,97.82
2022-10-05T01:34:22.475Z,97.89
2022-10-05T01:37:03.709Z,97.45
2022-10-05T01:39:44.718Z,98.19
2022-10-05T01:42:25.883Z,98.54
2022-10-05T01:45:07.701Z,98.11
2022-10-05T01:47:44.351Z,97.75
2022-10-05T01:50:25.380Z,97.13
2022-10-05T01:53:07.982Z,98.29
2022-10-05T01:55:48.635Z,97.81
2022-10-05T01:58:31.564Z,97.51
2022-10-05T02:01:10.868Z,96.89
2022-10-05T02:03:47.647Z,96.42
2022-10-05T02:06:25.791Z,96.73
2022-10-05T02:09:04.515Z,95.77
2022-10-05T02:11:39.492Z,95.45
2022-10-05T02:14:15.724Z,95.48
2022-10-05T02:16:53.733Z,96.23
2022-10-05T02:19:32.811Z,95.96
2022-10-05T02:22:08.159Z,95.85
2022-10-05T02:24:49.774Z,96.04
2022-10-05T02:27:29.011Z,95.57
2022-10-05T02:30:04.536Z,94.83
2022-10-05T02:32:50.916Z,94.47
2022-10-05T02:35:23.210Z,94.98
2022-10-05T02:38:06.682Z,95.13
2022-10-05T02:40:51.249Z,95.64
2022-10-05T02:43:38.157Z,94.33
2022-10-05T02:46:22.474Z,94.71
2022-10-05T02:49:08.547Z,94.84
2022-10-05T02:51:46.957Z,95.32
2022-10-05T02:54:34.829Z,93.86
2022-10-05T02:57:15.247Z,94.09
2022-10-05T02:59:54.663Z,94.98
2022-10-05T03:02:34.781Z,95.03
2022-10-05T03:05:18.136Z,94.71
2022-10-05T03:08:00.592Z,94.82
2022-10-05T03:10:39.523Z,94.29
2022-10-05T03:13:24.743Z,93.96
2022-10-05T03:16:13.215Z,94.79
2022-10-05T03:18:56.158Z,95.02
2022-10-05T03:21:47.483Z,94.71
2022-10-05T03:24:38.899Z,95.48
2022-10-05T03:27:23.511Z,95.34
2022-10-05T03:30:02.691Z,95.78
2022-10-05T03:32:50.685Z,95.88
2022-10-05T03:35:29.866Z,96.81
2022-10-05T03:38:11.907Z,97.54
2022-10-05T03:40:50.242Z,96.90
2022-10-05T03:43:52.916Z,96.65
2022-10-05T03:46:37.625Z,96.96
2022-10-05T03:49:31.738Z,96.10
2022-10-05T03:52:10.928Z,96.03
2022-10-05T03:54:47.653Z,95.91
2022-10-05T03:57:23.976Z,95.99
2022-10-05T04:00:00.561Z,95.99
2022-10-05T04:02:42.603Z,96.67
2022-10-05T04:05:19.802Z,96.02
2022-10-05T04:07:59.820Z,96.57
2022-10-05T04:10:40.026Z,96.49
2022-10-05T04:13:19.138Z,97.81
2022-10-05T04:15:59.469Z,97.55
2022-10-05T04:18:36.767Z,98.01
2022-10-05T04:21:13.209Z,97.80
2022-10-05T04:23:53.199Z,99.15
2022-10-05T04:26:34.507Z,98.77
2022-10-05T04:29:15.304Z,98.84
2022-10-05T04:32:02.724Z,98.33
2022-10-05T04:34:56.565Z,97.85
2022-10-05T04:37:37.141Z,97.02
2022-10-05T04:40:22.683Z,97.25
2022-10-05T04:43:04.443Z,98.04
2022-10-05T04:45:52.175Z,98.41
2022-10-05T04:48:39.140Z,99.12
2022-10-05T04:51:30.832Z,99.26
2022-10-05T04:54:13.726Z,99.79
2022-10-05T04:56:52.966Z,100.00
2022-10-05T04:59:55.127Z,100.00
2022-10-05T05:02:38.494Z,100.00
2022-10-05T05:05:58.663Z,100.00
2022-10-05T05:08:47.887Z,100.00
2022-10-05T05:11:28.652Z,100.00
2022-10-05T05:14:26.018Z,100.00
2022-10-05T05:17:13.886Z,100.00
2022-10-05T05:19:57.955Z,100.00
2022-10-05T05:22:43.514Z,100.00
2022-10-05T05:25:29.972Z,100.00
2022-10-05T05:28:16.816Z,100.00
2022-10-05T05:31:00.288Z,100.00
2022-10-05T05:33:45.210Z,100.00
2022-10-05T05:36:42.071Z,100.00
2022-10-05T05:39:25.763Z,100.00
2022-10-05T05:42:02.252Z,100.00
2022-10-05T05:44:43.641Z,100.00
2022-10-05T05:47:19.223Z,100.00
2022-10-05T05:50:07.887Z,100.00
2022-10-05T05:52:49.122Z,100.00
2022-10-05T05:55:30.134Z,100.00
2022-10-05T05:58:14.626Z,100.00
2022-10-05T06:00:52.455Z,100.00
2022-10-05T06:03:31.738Z,100.00
2022-10-05T06:06:09.599Z,100.00
2022-10-05T06:08:46.156Z,100.00
2022-10-05T06:11:40.822Z,100.00
2022-10-05T06:14:18.371Z,100.00
2022-10-05T06:17:00.172Z,100.00
2022-10-05T06:19:34.242Z,98.93
2022-10-05T06:22:16.731Z,99.11
2022-10-05T06:25:04.115Z,99.39
2022-10-05T06:27:38.419Z,98.34
2022-10-05T06:30:13.152Z,96.15
2022-10-05T06:33:04.514Z,94.83
2022-10-05T06:35:52.222Z,93.51
2022-10-05T06:38:43.692Z,93.54
2022-10-05T06:41:25.830Z,92.99
2022-10-05T06:44:00.510Z,92.14
2022-10-05T06:47:10.208Z,89.20
2022-10-05T06:50:00.984Z,88.93
2022-10-05T06:52:59.270Z,87.51
2022-10-05T06:55:42.867Z,87.29
2022-10-05T06:58:36.502Z,86.56
2022-10-05T07:01:15.310Z,86.36
2022-10-05T07:04:09.256Z,85.24
2022-10-05T07:06:49.422Z,84.93
2022-10-05T07:09:34.765Z,85.12
2022-10-05T07:12:36.595Z,85.96
2022-10-05T07:15:42.634Z,86.07
2022-10-05T07:18:45.753Z,85.22
2022-10-05T07:21:28.861Z,84.30
2022-10-05T07:24:10.163Z,83.83
2022-10-05T07:26:46.584Z,81.08
2022-10-05T07:29:23.237Z,78.91
2022-10-05T07:32:07.031Z,76.47
2022-10-05T07:34:49.441Z,75.89
2022-10-05T07:37:50.628Z,74.52
2022-10-05T07:40:28.930Z,74.63
2022-10-05T07:43:18.398Z,73.35
2022-10-05T07:45:57.912Z,73.61
2022-10-05T07:48:51.955Z,72.15
2022-10-05T07:51:33.762Z,71.93
2022-10-05T07:54:16.631Z,70.34
2022-10-05T07:56:55.635Z,69.67
2022-10-05T07:59:35.901Z,69.19
2022-10-05T08:02:19.125Z,66.85
2022-10-05T08:04:59.753Z,67.12
2022-10-05T08:07:34.547Z,66.13
2022-10-05T08:10:22.759Z,67.35
2022-10-05T08:13:06.206Z,65.63
2022-10-05T08:15:42.435Z,66.17
2022-10-05T08:18:20.167Z,62.54
2022-10-05T08:20:56.253Z,62.13
2022-10-05T08:23:37.926Z,61.55
2022-10-05T08:26:21.855Z,62.11
2022-10-05T08:29:03.791Z,63.25
2022-10-05T08:31:38.498Z,60.58
2022-10-05T08:34:21.737Z,60.67
2022-10-05T08:37:01.952Z,60.57
2022-10-05T08:39:39.428Z,60.78
2022-10-05T08:42:55.185Z,60.08
2022-10-05T08:46:02.473Z,60.61
2022-10-05T08:48:56.393Z,58.13
2022-10-05T08:51:49.237Z,57.00
2022-10-05T08:54:46.371Z,55.34
2022-10-05T08:58:01.539Z,55.71
2022-10-05T09:00:49.497Z,53.07
2022-10-05T09:03:59.349Z,54.44
2022-10-05T09:07:07.526Z,54.23
2022-10-05T09:10:12.227Z,55.65
2022-10-05T09:13:19.794Z,54.24
2022-10-05T09:16:36.759Z,53.50
2022-10-05T09:19:39.590Z,50.42
2022-10-05T09:22:15.976Z,50.85
2022-10-05T09:25:01.604Z,47.76
2022-10-05T09:27:36.956Z,47.06
2022-10-05T09:30:37.134Z,46.98
2022-10-05T09:34:00.067Z,47.30
2022-10-05T09:37:05.007Z,45.14
2022-10-05T09:40:21.071Z,44.36
2022-10-05T09:43:10.694Z,44.57
2022-10-05T09:46:09.041Z,43.77
2022-10-05T09:49:14.883Z,43.09
2022-10-05T09:52:13.964Z,42.75
2022-10-05T09:55:24.836Z,42.59
2022-10-05T09:59:05.934Z,43.35
2022-10-05T10:01:56.405Z,42.32
2022-10-05T10:04:48.524Z,42.47
2022-10-05T10:07:41.977Z,43.85
2022-10-05T10:10:53.125Z,42.25
2022-10-05T10:14:05.010Z,43.45
2022-10-05T10:16:57.886Z,43.53
2022-10-05T10:20:02.507Z,41.65
2022-10-05T10:23:02.127Z,42.23
2022-10-05T10:26:11.082Z,42.95
2022-10-05T10:29:19.475Z,38.40
2022-10-05T10:32:13.414Z,38.34
2022-10-05T10:35:13.871Z,39.37
2022-10-05T10:38:30.359Z,41.31
2022-10-05T10:41:36.750Z,40.18
2022-10-05T10:44:55.082Z,40.61
2022-10-05T10:48:00.704Z,40.11
2022-10-05T10:51:18.500Z,41.32
2022-10-05T10:54:24.195Z,40.11
2022-10-05T10:57:08.615Z,41.27
2022-10-05T11:00:20.115Z,39.82
2022-10-05T11:03:27.266Z,40.57
2022-10-05T11:06:35.968Z,40.49
2022-10-05T11:09:27.979Z,41.44
2022-10-05T11:12:44.007Z,38.58
2022-10-05T11:18:57.963Z,37.46
2022-10-05T11:21:37.883Z,37.50
2022-10-05T11:24:53.983Z,38.52
2022-10-05T11:27:48.207Z,38.22
2022-10-05T11:30:54.478Z,39.47
2022-10-05T11:34:07.290Z,37.94
2022-10-05T11:37:22.314Z,39.43
2022-10-05T11:40:20.847Z,39.01
2022-10-05T11:43:32.520Z,39.54
2022-10-05T11:46:10.597Z,39.62
2022-10-05T11:49:07.935Z,38.13
2022-10-05T11:52:02.583Z,36.57
2022-10-05T11:55:10.461Z,36.87
2022-10-05T11:57:50.017Z,36.80
2022-10-05T12:00:24.483Z,35.78
2022-10-05T12:03:34.813Z,36.05
2022-10-05T12:06:21.568Z,35.09
2022-10-05T12:09:07.768Z,35.46
2022-10-05T12:11:57.697Z,35.13
2022-10-05T12:14:43.854Z,34.49
2022-10-05T12:17:24.601Z,34.13
2022-10-05T12:20:02.421Z,35.80
2022-10-05T12:22:41.068Z,34.70
2022-10-05T12:25:25.486Z,35.13
2022-10-05T12:28:04.189Z,33.26
2022-10-05T12:30:59.703Z,37.06
2022-10-05T12:33:37.346Z,36.32
2022-10-05T12:36:14.568Z,36.24
2022-10-05T12:38:54.040Z,36.02
2022-10-05T12:41:28.994Z,35.23
2022-10-05T12:44:16.299Z,35.50
2022-10-05T12:46:59.270Z,35.59
2022-10-05T12:49:44.314Z,34.33
2022-10-05T12:52:33.194Z,36.12
2022-10-05T12:55:12.251Z,36.20
2022-10-05T12:57:58.304Z,37.12
2022-10-05T13:00:34.013Z,36.67
2022-10-05T13:03:17.059Z,36.35
2022-10-05T13:06:02.340Z,36.45
2022-10-05T13:08:44.433Z,38.15
2022-10-05T13:11:21.837Z,37.33
2022-10-05T13:14:06.727Z,36.93
2022-10-05T13:16:51.245Z,37.36
2022-10-05T13:19:38.489Z,38.57
2022-10-05T13:22:29.658Z,39.76
2022-10-05T13:25:25.152Z,40.49
2022-10-05T13:28:15.661Z,39.95
2022-10-05T13:31:01.077Z,39.58
2022-10-05T13:33:54.170Z,41.12
2022-10-05T13:36:38.044Z,39.66
2022-10-05T13:39:26.811Z,39.24
2022-10-05T13:42:04.345Z,40.03
2022-10-05T13:44:45.398Z,41.45
2022-10-05T13:47:30.103Z,39.46
2022-10-05T13:50:05.439Z,39.95
2022-10-05T13:52:47.793Z,40.83
2022-10-05T13:55:37.379Z,41.10
2022-10-05T13:58:18.629Z,40.79
2022-10-05T14:00:54.775Z,41.21
2022-10-05T14:03:31.715Z,41.16
2022-10-05T14:06:12.028Z,42.10
2022-10-05T14:08:51.373Z,43.35
2022-10-05T14:11:30.525Z,41.90
2022-10-05T14:14:13.291Z,42.15
2022-10-05T14:16:51.780Z,41.94
2022-10-05T14:19:27.220Z,42.46
2022-10-05T14:22:01.418Z,42.02
2022-10-05T14:24:44.613Z,43.71
2022-10-05T14:27:21.426Z,42.78
2022-10-05T14:29:59.130Z,43.64
2022-10-05T14:32:42.535Z,43.76
2022-10-05T14:35:17.754Z,43.39
2022-10-05T14:37:55.847Z,43.14
2022-10-05T14:40:31.590Z,43.76
2022-10-05T14:43:19.054Z,42.76
2022-10-05T14:45:55.949Z,43.62
2022-10-05T14:48:37.472Z,42.02
2022-10-05T14:51:12.927Z,43.16
2022-10-05T14:53:55.454Z,44.88
2022-10-05T14:56:41.758Z,44.47
2022-10-05T14:59:53.103Z,44.19
2022-10-05T15:02:47.192Z,43.89
2022-10-05T15:05:26.110Z,45.60
2022-10-05T15:08:14.288Z,45.02
2022-10-05T15:10:52.242Z,44.41
2022-10-05T15:13:30.829Z,44.09
2022-10-05T15:16:05.320Z,45.90
2022-10-05T15:18:48.098Z,46.79
2022-10-05T15:21:45.229Z,47.18
2022-10-05T15:24:21.274Z,48.12
2022-10-05T15:26:55.423Z,49.14
2022-10-05T15:29:51.223Z,50.00
2022-10-05T15:32:41.446Z,50.44
2022-10-05T15:35:36.319Z,51.61
2022-10-05T15:38:20.474Z,53.55
2022-10-05T15:41:07.923Z,54.58
2022-10-05T15:43:53.034Z,55.91
2022-10-05T15:46:33.558Z,56.11
2022-10-05T15:49:20.904Z,56.42
2022-10-05T15:52:03.230Z,56.43
2022-10-05T15:55:04.691Z,55.21
2022-10-05T15:57:44.998Z,55.95
2022-10-05T16:00:18.897Z,57.24
2022-10-05T16:02:57.925Z,58.12
2022-10-05T16:05:59.124Z,58.76
2022-10-05T16:09:00.135Z,58.78
2022-10-05T16:11:47.405Z,59.74
2022-10-05T16:14:31.107Z,60.25
2022-10-05T16:17:20.535Z,60.24
2022-10-05T16:20:26.311Z,60.63
2022-10-05T16:23:07.027Z,61.88
2022-10-05T16:25:53.135Z,62.25
2022-10-05T16:28:38.781Z,62.19
2022-10-05T16:31:18.635Z,63.38
2022-10-05T16:34:01.630Z,62.41
2022-10-05T16:36:46.881Z,59.12
2022-10-05T16:39:40.503Z,59.03
2022-10-05T16:42:22.319Z,58.04
2022-10-05T16:45:06.103Z,59.20
2022-10-05T16:47:48.367Z,59.55
2022-10-05T16:50:26.037Z,61.09
2022-10-05T16:53:04.493Z,62.60
2022-10-05T16:55:41.085Z,64.28
2022-10-05T16:58:17.937Z,65.14
2022-10-05T17:01:04.719Z,64.39
2022-10-05T17:03:53.180Z,64.53
2022-10-05T17:07:03.943Z,63.18
2022-10-05T17:09:55.188Z,63.71
2022-10-05T17:12:45.301Z,63.60
2022-10-05T17:15:36.541Z,62.98
2022-10-05T17:18:53.729Z,63.37
2022-10-05T17:21:34.111Z,63.67
2022-10-05T17:24:29.631Z,63.78
2022-10-05T17:27:16.985Z,64.27
2022-10-05T17:29:51.648Z,63.86
2022-10-05T17:32:35.355Z,63.66
2022-10-05T17:35:18.944Z,63.48
2022-10-05T17:38:16.512Z,64.01
2022-10-05T17:41:15.656Z,63.42
2022-10-05T17:44:30.699Z,64.25
2022-10-05T17:47:07.631Z,63.48
2022-10-05T17:50:14.103Z,62.55
2022-10-05T17:53:37.121Z,63.50
2022-10-05T17:56:09.567Z,64.73
2022-10-05T17:58:57.567Z,66.11
2022-10-05T18:01:33.110Z,66.49
2022-10-05T18:04:33.711Z,66.74
2022-10-05T18:07:24.141Z,67.63
2022-10-05T18:10:00.825Z,67.78
2022-10-05T18:12:44.661Z,68.38
2022-10-05T18:15:44.138Z,68.62
2022-10-05T18:18:56.666Z,69.53
2022-10-05T18:21:32.410Z,70.39
2022-10-05T18:24:30.676Z,70.71
2022-10-05T18:27:31.159Z,71.03
2022-10-05T18:30:17.477Z,71.45
2022-10-05T18:33:17.790Z,71.58
2022-10-05T18:36:00.336Z,71.84
2022-10-05T18:38:44.740Z,71.92
2022-10-05T18:41:28.591Z,72.11
2022-10-05T18:44:18.803Z,72.74
2022-10-05T18:46:59.098Z,73.17
2022-10-05T18:49:59.833Z,73.85
2022-10-05T18:52:45.978Z,74.46
2022-10-05T18:55:24.855Z,74.35
2022-10-05T18:58:22.165Z,74.28
2022-10-05T19:01:19.030Z,75.25
2022-10-05T19:04:03.878Z,75.25
2022-10-05T19:06:44.348Z,76.38
2022-10-05T19:09:31.266Z,76.88
2022-10-05T19:12:15.712Z,77.54
2022-10-05T19:14:58.725Z,77.78
2022-10-05T19:17:49.723Z,78.36
2022-10-05T19:20:28.681Z,79.32
2022-10-05T19:23:18.259Z,79.70
2022-10-05T19:25:54.646Z,79.49
2022-10-05T19:28:32.424Z,79.84
2022-10-05T19:31:24.898Z,79.18
2022-10-05T19:34:15.650Z,79.76
2022-10-05T19:36:58.019Z,80.10
2022-10-05T19:39:38.676Z,79.71
2022-10-05T19:42:25.795Z,80.21
2022-10-05T19:45:12.455Z,80.33
2022-10-05T19:47:56.268Z,80.72
2022-10-05T19:50:32.882Z,80.91
2022-10-05T19:53:12.255Z,80.43
2022-10-05T19:55:46.433Z,80.49
2022-10-05T19:58:21.507Z,81.15
2022-10-05T20:00:56.299Z,81.49
2022-10-05T20:03:29.838Z,81.88
2022-10-05T20:06:04.744Z,81.95
2022-10-05T20:08:38.975Z,81.58
2022-10-05T20:11:14.521Z,81.37
2022-10-05T20:14:09.462Z,80.96
2022-10-05T20:16:59.934Z,81.77
2022-10-05T20:19:55.690Z,81.74
2022-10-05T20:22:33.814Z,81.27
2022-10-05T20:25:28.081Z,81.68
2022-10-05T20:28:02.253Z,82.03
2022-10-05T20:30:34.634Z,82.36
2022-10-05T20:33:10.918Z,82.10
2022-10-05T20:35:43.218Z,81.92
2022-10-05T20:38:16.174Z,82.31
2022-10-05T20:40:48.597Z,81.86
2022-10-05T20:43:20.889Z,83.00
2022-10-05T20:45:53.199Z,83.96
2022-10-05T20:48:26.094Z,83.54
2022-10-05T20:50:59.522Z,83.44
2022-10-05T20:53:32.873Z,83.85
2022-10-05T20:56:05.626Z,83.72
2022-10-05T20:58:37.971Z,83.71
2022-10-05T21:01:19.165Z,84.21
2022-10-05T21:03:51.901Z,84.73
2022-10-05T21:06:27.420Z,84.73
2022-10-05T21:09:00.399Z,83.80
2022-10-05T21:11:32.706Z,84.28
2022-10-05T21:14:05.933Z,83.46
2022-10-05T21:16:40.367Z,84.08
2022-10-05T21:19:14.247Z,84.63
2022-10-05T21:21:46.723Z,84.52
2022-10-05T21:24:19.764Z,84.58
2022-10-05T21:26:53.564Z,85.11
2022-10-05T21:29:25.878Z,85.07
2022-10-05T21:31:58.306Z,84.83
2022-10-05T21:34:30.783Z,85.16
2022-10-05T21:37:03.171Z,84.45
2022-10-05T21:39:36.144Z,85.13
2022-10-05T21:42:08.507Z,84.86
2022-10-05T21:44:40.787Z,83.96
2022-10-05T21:47:13.258Z,84.33
2022-10-05T21:49:45.562Z,84.77
2022-10-05T21:52:18.004Z,85.04
2022-10-05T21:54:51.058Z,84.65
2022-10-05T21:57:23.422Z,84.81
2022-10-05T21:59:55.847Z,84.76
2022-10-05T22:02:28.399Z,84.98
2022-10-05T22:05:00.734Z,85.05
2022-10-05T22:07:34.308Z,84.67
2022-10-05T22:10:08.750Z,83.99
2022-10-05T22:12:41.907Z,84.81
2022-10-05T22:15:14.707Z,84.39
2022-10-05T22:17:47.038Z,84.41
2022-10-05T22:20:21.176Z,84.70
2022-10-05T22:22:53.512Z,84.70
2022-10-05T22:25:26.481Z,84.99
2022-10-05T22:27:59.248Z,85.26
2022-10-05T22:30:31.538Z,84.62
2022-10-05T22:33:04.274Z,84.54
2022-10-05T22:35:36.899Z,84.74
2022-10-05T22:38:09.255Z,85.15
2022-10-05T22:40:42.225Z,85.09
2022-10-05T22:43:14.531Z,84.90
2022-10-05T22:45:46.853Z,85.14
2022-10-05T22:48:19.264Z,85.61
2022-10-05T22:50:51.623Z,85.39
2022-10-05T22:53:23.972Z,85.61
2022-10-05T22:55:57.091Z,85.01
2022-10-05T22:58:29.790Z,85.31
2022-10-05T23:01:04.064Z,85.34
2022-10-05T23:03:36.634Z,85.29
2022-10-05T23:06:10.897Z,85.19
2022-10-05T23:08:44.104Z,85.21
2022-10-05T23:11:18.982Z,84.99
2022-10-05T23:13:51.944Z,85.17
2022-10-05T23:16:25.959Z,85.41
2022-10-05T23:18:58.537Z,85.83
2022-10-05T23:21:30.878Z,85.55
2022-10-05T23:24:03.234Z,85.28
2022-10-05T23:26:36.248Z,84.77
2022-10-05T23:29:09.303Z,85.17
2022-10-05T23:31:41.580Z,85.54
2022-10-05T23:34:13.857Z,85.98
2022-10-05T23:36:46.270Z,86.00
2022-10-05T23:39:18.598Z,85.63
2022-10-05T23:41:51.763Z,85.63
2022-10-05T23:44:24.078Z,86.17
2022-10-05T23:46:56.348Z,86.39
2022-10-05T23:49:28.666Z,86.43
2022-10-05T23:52:00.952Z,86.34
2022-10-05T23:54:33.284Z,86.44
2022-10-05T23:57:06.369Z,85.29
2022-10-05T23:59:38.656Z,85.76
